Time;durP1;ratioP1;P1;durP2;ratioP2;P2;SDS_P1;SDS_P2;PMS_P1;PMS_P2;Temp;Humidity;BMP_temperature;BMP_pressure;BME280_temperature;BME280_humidity;BME280_pressure;Samples;Min_cycle;Max_cycle;Signal;HPM_P1;HPM_P2
2021/07/24 00:04:20;;;;;;;15.65;10.45;;;;;;;18.95;63.02;101366.34;10458036;28;20055;-76
2021/07/24 00:09:20;;;;;;;18.00;13.88;;;;;;;18.89;63.32;101359.06;10473725;28;20538;-76
2021/07/24 00:14:20;;;;;;;12.98;9.90;;;;;;;18.81;62.66;101327.34;10492143;28;20532;-76
2021/07/24 00:19:21;;;;;;;17.70;11.10;;;;;;;18.97;61.99;101342.22;10470538;28;20056;-76
2021/07/24 00:24:21;;;;;;;16.00;11.90;;;;;;;18.35;62.30;101237.72;10471608;28;20040;-76
2021/07/24 00:29:22;;;;;;;16.35;11.48;;;;;;;18.92;62.66;101341.25;10489416;28;20056;-76
2021/07/24 00:34:22;;;;;;;26.33;13.05;;;;;;;18.03;62.85;101209.88;10493405;28;20037;-76
2021/07/24 00:39:23;;;;;;;18.30;12.60;;;;;;;18.88;62.50;101332.69;10476711;28;20119;-76
2021/07/24 00:44:24;;;;;;;15.23;11.65;;;;;;;18.79;63.24;101304.81;10472298;28;20112;-76
2021/07/24 00:49:26;;;;;;;14.27;11.73;;;;;;;17.91;63.52;101173.44;10490149;28;20048;-76
2021/07/24 00:54:28;;;;;;;13.57;10.75;;;;;;;18.61;63.52;101268.44;10493399;28;20479;-76
2021/07/24 00:59:28;;;;;;;17.38;10.88;;;;;;;18.36;63.46;101234.72;10480451;28;20036;-76
2021/07/24 01:04:29;;;;;;;11.27;9.23;;;;;;;18.67;63.45;101294.91;10479225;28;20037;-76
2021/07/24 01:09:31;;;;;;;15.75;10.63;;;;;;;18.65;63.84;101270.44;10460073;28;20161;-76
2021/07/24 01:14:32;;;;;;;20.30;13.32;;;;;;;18.76;63.12;101253.16;10494063;28;20436;-76
2021/07/24 01:19:32;;;;;;;15.02;10.85;;;;;;;18.32;63.82;101213.53;10496826;28;20057;-76
2021/07/24 01:24:33;;;;;;;13.80;11.73;;;;;;;18.48;64.19;101245.69;10461779;28;20185;-76
2021/07/24 01:29:34;;;;;;;13.23;11.90;;;;;;;18.65;63.52;101236.69;10478241;28;20147;-76
2021/07/24 01:34:34;;;;;;;16.98;12.27;;;;;;;18.81;62.80;101228.56;10468946;28;20123;-76
2021/07/24 01:39:35;;;;;;;14.40;11.55;;;;;;;18.68;62.45;101220.59;10503241;28;20033;-76
2021/07/24 01:44:35;;;;;;;19.58;12.57;;;;;;;17.73;63.07;101071.09;10503184;28;20090;-76
2021/07/24 01:54:56;;;;;;;15.32;12.27;;;;;;;18.18;64.57;101201.16;10473260;28;20115;-76
2021/07/24 01:59:57;;;;;;;17.17;13.77;;;;;;;18.14;64.44;101195.31;10468278;28;20035;-76
2021/07/24 02:04:57;;;;;;;22.38;15.02;;;;;;;18.16;64.39;101176.72;10482761;28;20098;-76
2021/07/24 02:09:58;;;;;;;19.83;14.35;;;;;;;17.73;64.97;101111.34;10467513;28;20125;-76
2021/07/24 02:14:59;;;;;;;20.23;14.38;;;;;;;17.89;65.26;101181.88;10468247;28;20054;-76
2021/07/24 02:19:59;;;;;;;18.67;14.80;;;;;;;17.78;65.03;101169.84;10484316;28;20052;-76
2021/07/24 02:24:59;;;;;;;24.67;13.40;;;;;;;17.77;65.04;101156.38;10466695;28;20036;-76
2021/07/24 02:30:00;;;;;;;23.25;15.27;;;;;;;17.96;65.43;101177.09;10501341;28;20460;-77
2021/07/24 02:35:00;;;;;;;18.38;11.60;;;;;;;17.83;64.91;101137.09;10465970;28;20041;-76
2021/07/24 02:40:01;;;;;;;22.85;15.48;;;;;;;17.72;65.54;101128.88;10501364;28;20067;-76
2021/07/24 02:45:01;;;;;;;22.23;14.13;;;;;;;17.95;65.02;101144.47;10484031;28;20033;-76
2021/07/24 02:50:02;;;;;;;18.92;13.73;;;;;;;17.95;65.28;101152.69;10503282;28;20440;-76
2021/07/24 02:55:03;;;;;;;26.05;14.02;;;;;;;17.71;64.97;101108.88;10505062;28;20037;-76
2021/07/24 03:00:06;;;;;;;18.50;13.18;;;;;;;17.80;65.83;101099.22;10504057;28;20100;-76
2021/07/24 03:05:07;;;;;;;21.35;15.20;;;;;;;17.15;67.16;100987.13;10465281;28;20380;-76
2021/07/24 03:10:08;;;;;;;31.02;15.60;;;;;;;17.24;66.66;100999.38;10482983;28;20102;-76
2021/07/24 03:15:09;;;;;;;23.33;14.27;;;;;;;17.64;66.90;101091.69;10465212;28;20029;-76
2021/07/24 03:20:10;;;;;;;20.25;13.85;;;;;;;17.70;66.47;101088.00;10481042;28;20048;-76
2021/07/24 03:25:11;;;;;;;20.55;13.82;;;;;;;17.65;66.82;101098.88;10499525;28;20060;-76
2021/07/24 03:30:12;;;;;;;19.05;14.57;;;;;;;17.71;66.69;101091.56;10498631;28;20036;-76
2021/07/24 03:35:12;;;;;;;22.73;13.10;;;;;;;17.66;66.79;101084.09;10481313;28;20178;-76
2021/07/24 03:40:13;;;;;;;22.00;14.25;;;;;;;17.80;65.90;101101.13;10498271;28;20028;-76
2021/07/24 03:45:13;;;;;;;24.75;12.75;;;;;;;17.75;66.43;101082.66;10499084;28;20044;-76
2021/07/24 03:50:14;;;;;;;18.02;14.20;;;;;;;17.59;66.41;101037.66;10480223;28;20048;-76
2021/07/24 03:55:14;;;;;;;20.83;16.60;;;;;;;17.61;66.93;101070.28;10480867;28;20070;-76
2021/07/24 04:00:15;;;;;;;23.15;13.45;;;;;;;17.59;66.94;101072.44;10497910;28;20537;-76
2021/07/24 04:05:15;;;;;;;17.13;14.02;;;;;;;17.45;67.04;101049.94;10463962;28;20040;-76
2021/07/24 04:10:16;;;;;;;27.00;14.18;;;;;;;17.75;66.11;101079.91;10498341;28;20120;-76
2021/07/24 04:15:16;;;;;;;16.45;13.32;;;;;;;17.26;66.14;100979.97;10463685;28;20036;-76
2021/07/24 04:20:20;;;;;;;20.42;14.43;;;;;;;17.56;66.29;101051.00;10463313;28;20059;-76
2021/07/24 04:25:21;;;;;;;18.63;12.50;;;;;;;18.07;66.00;101095.97;10480745;28;20391;-76
2021/07/24 04:30:21;;;;;;;31.95;14.68;;;;;;;18.23;65.62;101114.38;10502077;28;20036;-76
2021/07/24 04:35:22;;;;;;;24.52;14.13;;;;;;;17.83;65.29;101063.13;10505278;28;20480;-76
2021/07/24 04:40:22;;;;;;;16.27;13.02;;;;;;;18.22;65.56;101120.09;10487055;28;20033;-76
2021/07/24 04:45:22;;;;;;;24.67;15.55;;;;;;;17.71;65.76;101086.94;10470397;28;20115;-76
2021/07/24 04:50:23;;;;;;;14.00;12.50;;;;;;;17.81;65.65;101026.09;10488985;28;20040;-76
2021/07/24 04:55:24;;;;;;;15.15;11.63;;;;;;;17.83;65.85;101019.28;10470531;28;20047;-76
2021/07/24 05:00:25;;;;;;;23.58;12.00;;;;;;;18.22;65.81;101077.09;10471648;28;20028;-76
2021/07/24 05:05:25;;;;;;;16.80;11.75;;;;;;;17.44;65.67;100949.72;10486719;28;20158;-76
2021/07/24 05:10:25;;;;;;;19.38;12.63;;;;;;;18.35;65.74;101060.34;10492499;28;20020;-77
2021/07/24 05:15:26;;;;;;;17.85;13.30;;;;;;;18.39;65.70;101071.66;10512303;28;20043;-77
2021/07/24 05:20:28;;;;;;;18.02;12.00;;;;;;;18.41;64.80;101025.63;10489682;28;20049;-77
2021/07/24 05:25:29;;;;;;;15.32;11.65;;;;;;;17.80;63.75;100857.34;10485733;28;20039;-77
2021/07/24 05:30:29;;;;;;;16.50;11.52;;;;;;;19.02;63.31;101065.09;10485923;28;20357;-76
2021/07/24 05:35:29;;;;;;;18.83;11.20;;;;;;;18.87;63.92;101044.81;10504170;28;20029;-76
2021/07/24 05:40:30;;;;;;;17.38;12.45;;;;;;;18.10;63.01;100903.63;10503032;28;20093;-76
2021/07/24 05:45:30;;;;;;;19.95;11.05;;;;;;;19.29;62.57;101047.94;10502899;28;20037;-76
2021/07/24 05:50:31;;;;;;;21.17;9.60;;;;;;;19.16;62.83;101029.09;10485064;28;20472;-76
2021/07/24 05:55:31;;;;;;;20.58;11.75;;;;;;;17.81;62.64;100823.41;10484218;28;20068;-76
2021/07/24 06:00:31;;;;;;;18.73;11.77;;;;;;;19.38;62.37;101004.41;10484622;28;20098;-76
2021/07/24 06:05:33;;;;;;;15.45;10.60;;;;;;;19.22;62.41;101039.88;10502929;28;20068;-76
2021/07/24 06:10:34;;;;;;;15.10;10.63;;;;;;;19.03;62.25;100987.16;10484904;28;20040;-76
2021/07/24 06:15:41;;;;;;;14.13;11.07;;;;;;;19.22;62.13;101015.19;10501321;28;20072;-76
2021/07/24 06:20:41;;;;;;;;;;;;;;;19.45;62.27;101033.34;10484160;28;20048;-76
2021/07/24 06:25:42;;;;;;;18.80;12.90;;;;;;;19.66;61.33;101026.25;10501095;28;20378;-76
2021/07/24 06:30:43;;;;;;;14.95;11.25;;;;;;;18.85;61.29;100894.13;10466705;28;20029;-77
2021/07/24 06:35:43;;;;;;;19.17;12.10;;;;;;;19.70;61.17;101008.16;10467573;28;20460;-76
2021/07/24 06:40:43;;;;;;;12.38;10.63;;;;;;;19.95;60.65;101031.56;10483322;28;20032;-77
2021/07/24 06:45:44;;;;;;;15.13;12.13;;;;;;;20.11;60.45;101021.56;10482187;28;20124;-77
2021/07/24 06:50:44;;;;;;;18.10;11.20;;;;;;;20.35;60.18;100989.91;10482196;28;20036;-78
2021/07/24 06:55:45;;;;;;;13.18;10.15;;;;;;;20.69;59.25;101002.63;10474255;28;20044;-78
2021/07/24 07:00:45;;;;;;;13.20;10.80;;;;;;;20.62;59.25;100992.66;10490554;28;20459;-75
2021/07/24 07:05:46;;;;;;;15.30;11.27;;;;;;;20.41;59.52;100975.09;10473196;28;20115;-76
2021/07/24 07:10:48;;;;;;;18.33;9.52;;;;;;;20.48;59.21;100966.63;10490835;28;20410;-76
2021/07/24 07:15:48;;;;;;;12.90;9.93;;;;;;;20.38;59.66;100966.56;10472932;28;20037;-76
2021/07/24 07:20:49;;;;;;;21.95;12.05;;;;;;;20.53;59.44;100963.16;10490480;28;20052;-75
2021/07/24 07:25:49;;;;;;;17.27;10.82;;;;;;;20.66;59.65;100962.69;10472152;28;20468;-75
2021/07/24 07:30:50;;;;;;;13.35;10.70;;;;;;;20.90;58.82;100972.25;10496067;28;20115;-75
2021/07/24 07:35:50;;;;;;;31.98;13.10;;;;;;;21.31;58.23;100963.38;10498013;28;20064;-76
2021/07/24 07:40:51;;;;;;;21.52;11.63;;;;;;;21.41;57.67;100957.13;10475651;28;20504;-75
2021/07/24 07:45:51;;;;;;;13.20;9.48;;;;;;;20.73;57.17;100833.13;10488661;28;20447;-76
2021/07/24 07:50:52;;;;;;;13.23;10.57;;;;;;;21.28;56.98;100884.91;10453549;28;20068;-77
2021/07/24 07:55:53;;;;;;;10.88;9.43;;;;;;;21.45;56.01;100815.00;10488849;28;20060;-76
2021/07/24 08:00:53;;;;;;;19.25;11.30;;;;;;;22.43;55.58;100943.63;10453594;28;20068;-76
2021/07/24 08:05:54;;;;;;;12.23;10.80;;;;;;;22.44;54.89;100906.66;10494938;28;20115;-76
2021/07/24 08:10:54;;;;;;;16.40;12.18;;;;;;;22.85;54.15;100959.06;10478400;28;20029;-76
2021/07/24 08:15:55;;;;;;;15.80;11.02;;;;;;;22.73;54.32;100946.38;10477495;28;20121;-75
2021/07/24 08:20:55;;;;;;;18.95;11.10;;;;;;;22.51;54.34;100908.03;10495941;28;20446;-76
2021/07/24 08:25:56;;;;;;;13.70;10.48;;;;;;;22.79;54.54;100930.63;10495055;28;20067;-75
2021/07/24 08:30:56;;;;;;;19.58;11.02;;;;;;;22.95;54.29;100932.28;10478157;28;20115;-74
2021/07/24 08:35:57;;;;;;;18.20;10.80;;;;;;;22.92;54.51;100937.50;10480625;28;20483;-77
2021/07/24 08:40:57;;;;;;;12.88;10.30;;;;;;;22.77;54.58;100934.78;10480612;28;20131;-75
2021/07/24 08:45:58;;;;;;;14.27;11.38;;;;;;;22.47;55.27;100945.56;10498621;28;20052;-77
2021/07/24 08:50:58;;;;;;;12.10;10.07;;;;;;;22.40;55.52;100925.72;10480365;28;20123;-78
2021/07/24 08:56:04;;;;;;;13.30;11.60;;;;;;;22.78;55.41;100944.69;10462221;28;20125;-77
2021/07/24 09:01:04;;;;;;;12.10;10.57;;;;;;;22.88;55.05;100934.50;10479524;28;20123;-77
2021/07/24 09:06:05;;;;;;;12.27;10.50;;;;;;;22.77;55.29;100921.78;10479131;28;20147;-75
2021/07/24 09:11:05;;;;;;;18.15;10.90;;;;;;;22.81;55.55;100919.31;10463264;28;20031;-75
2021/07/24 09:16:06;;;;;;;12.88;11.52;;;;;;;22.94;56.02;100913.22;10479234;28;20028;-78
2021/07/24 09:21:06;;;;;;;19.23;11.55;;;;;;;23.13;55.40;100899.63;10478523;28;20113;-78
2021/07/24 09:26:07;;;;;;;15.80;10.48;;;;;;;23.73;54.07;100894.97;10498420;28;20159;-78
2021/07/24 09:31:19;;;;;;;20.38;12.43;;;;;;;24.12;53.88;100919.88;10480523;28;20123;-79
2021/07/24 09:36:30;;;;;;;20.00;12.55;;;;;;;24.40;53.41;100933.22;10480494;28;20089;-78
2021/07/24 09:41:31;;;;;;;17.05;10.02;;;;;;;24.65;53.24;100913.66;10480840;28;20484;-80
2021/07/24 09:46:31;;;;;;;23.58;13.38;;;;;;;24.68;52.79;100904.75;10500730;28;20060;-78
2021/07/24 09:51:32;;;;;;;14.57;10.27;;;;;;;24.24;53.57;100954.66;10486061;28;20498;-78
2021/07/24 09:56:40;;;;;;;14.48;10.65;;;;;;;24.50;53.72;100911.84;10505793;28;20032;-77
2021/07/24 10:01:42;;;;;;;17.15;11.60;;;;;;;24.23;53.24;100862.53;10479474;28;20426;-75
2021/07/24 10:06:43;;;;;;;21.77;12.13;;;;;;;24.92;52.90;100909.50;10497436;28;20039;-74
2021/07/24 10:11:43;;;;;;;13.52;10.65;;;;;;;25.15;52.40;100907.91;10478993;28;20043;-75
2021/07/24 10:16:44;;;;;;;14.38;11.30;;;;;;;24.91;51.89;100858.81;10478590;28;20382;-75
2021/07/24 10:21:45;;;;;;;22.13;12.63;;;;;;;24.24;52.08;100777.56;10476866;28;20044;-76
2021/07/24 10:27:12;;;;;;;16.75;11.52;;;;;;;25.22;52.46;100900.88;10494651;28;20128;-76
2021/07/24 10:32:13;;;;;;;16.85;11.68;;;;;;;25.06;52.59;100897.44;10460381;28;20033;-75
2021/07/24 10:37:30;;;;;;;14.85;11.57;;;;;;;24.66;51.98;100792.63;10476769;28;20036;-76
2021/07/24 10:42:36;;;;;;;18.02;12.70;;;;;;;25.22;52.20;100861.25;10492683;28;20520;-76
2021/07/24 10:47:37;;;;;;;24.63;12.40;;;;;;;25.79;51.08;100887.09;10493240;28;20052;-77
2021/07/24 10:53:07;;;;;;;14.02;11.55;;;;;;;25.78;51.49;100893.72;10457489;28;20062;-75
2021/07/24 10:58:08;;;;;;;15.18;11.80;;;;;;;26.12;49.96;100881.59;10491483;28;20100;-75
2021/07/24 11:03:34;;;;;;;14.35;11.63;;;;;;;26.07;50.19;100879.75;10490102;28;20029;-76
2021/07/24 11:09:01;;;;;;;15.57;11.68;;;;;;;26.21;50.33;100877.84;10472164;28;20336;-76
2021/07/24 11:14:01;;;;;;;;;;;;;;;26.11;49.90;100885.53;10490696;28;20371;-76
2021/07/24 11:19:18;;;;;;;17.63;12.68;;;;;;;25.14;50.04;100738.00;10471973;28;19927;-76
2021/07/24 11:24:18;;;;;;;14.63;12.45;;;;;;;25.40;50.18;100754.28;10490506;28;20040;-76
2021/07/24 11:29:22;;;;;;;14.48;12.98;;;;;;;26.14;49.72;100876.59;10492192;28;20040;-75
2021/07/24 11:34:23;;;;;;;29.38;13.50;;;;;;;25.52;49.90;100826.72;10490373;28;20052;-75
2021/07/24 11:39:24;;;;;;;30.38;13.88;;;;;;;24.62;51.16;100753.63;10471337;28;20448;-75
2021/07/24 11:44:27;;;;;;;14.02;11.75;;;;;;;25.39;51.62;100869.06;10469439;28;20048;-75
2021/07/24 11:49:29;;;;;;;14.10;12.10;;;;;;;25.42;51.65;100860.97;10488241;28;20044;-75
2021/07/24 11:54:33;;;;;;;27.67;12.93;;;;;;;25.51;51.34;100859.19;10488681;28;20128;-75
2021/07/24 11:59:33;;;;;;;17.45;14.52;;;;;;;25.14;50.93;100867.44;10488599;28;20032;-75
2021/07/24 12:04:34;;;;;;;15.93;13.13;;;;;;;23.92;51.74;100731.13;10470974;28;20036;-75
2021/07/24 12:09:35;;;;;;;15.30;13.85;;;;;;;24.99;51.75;100883.09;10473103;28;20037;-75
2021/07/24 12:14:35;;;;;;;16.40;14.38;;;;;;;24.78;52.35;100857.56;10477848;28;20033;-75
2021/07/24 12:19:43;;;;;;;18.42;14.52;;;;;;;24.68;52.33;100812.56;10489667;28;20052;-75
2021/07/24 12:24:45;;;;;;;21.52;14.50;;;;;;;25.10;52.39;100864.41;10488227;28;20041;-75
2021/07/24 12:29:48;;;;;;;20.52;14.35;;;;;;;24.13;52.47;100741.69;10470524;28;20036;-75
2021/07/24 12:34:49;;;;;;;18.40;12.82;;;;;;;25.44;52.06;100877.31;10487840;28;20048;-75
2021/07/24 12:39:50;;;;;;;14.70;13.27;;;;;;;25.61;51.18;100883.16;10470412;28;20081;-75
2021/07/24 12:44:50;;;;;;;17.10;12.30;;;;;;;25.21;52.18;100885.38;10469612;28;20429;-75
2021/07/24 12:49:51;;;;;;;18.70;15.07;;;;;;;25.18;52.90;100883.19;10470392;28;20170;-75
2021/07/24 12:55:04;;;;;;;20.73;15.88;;;;;;;25.07;54.09;100887.16;10494999;28;20036;-74
2021/07/24 13:00:06;;;;;;;18.42;15.50;;;;;;;24.82;53.54;100766.41;10462097;28;20040;-75
2021/07/24 13:05:08;;;;;;;17.88;14.65;;;;;;;25.57;53.22;100884.91;10496360;28;20063;-75
2021/07/24 13:10:10;;;;;;;26.38;16.48;;;;;;;25.67;51.91;100878.38;10461825;28;20141;-75
2021/07/24 13:15:13;;;;;;;20.90;15.48;;;;;;;25.64;51.30;100912.25;10495408;28;20024;-75
2021/07/24 13:20:13;;;;;;;18.55;14.90;;;;;;;25.93;50.64;100871.34;10494752;28;20075;-75
2021/07/24 13:30:18;;;;;;;17.83;14.93;;;;;;;25.83;51.18;100890.09;10496866;28;20039;-75
2021/07/24 13:35:18;;;;;;;20.20;18.13;;;;;;;25.90;50.28;100887.78;10463085;28;20162;-75
2021/07/24 13:40:18;;;;;;;23.05;17.00;;;;;;;25.56;51.32;100899.03;10479082;28;20179;-75
2021/07/24 13:45:19;;;;;;;19.10;17.10;;;;;;;25.55;51.40;100914.03;10479695;28;20031;-75
2021/07/24 13:50:19;;;;;;;25.20;16.85;;;;;;;25.03;51.85;100883.34;10479343;28;20033;-75
2021/07/24 13:55:20;;;;;;;24.25;17.30;;;;;;;25.20;52.00;100925.28;10498344;28;20040;-75
2021/07/24 14:00:21;;;;;;;25.38;16.35;;;;;;;24.19;52.29;100810.84;10499821;28;20479;-75
2021/07/24 14:05:21;;;;;;;25.23;18.08;;;;;;;24.12;53.38;100872.84;10497529;28;20076;-75
2021/07/24 14:10:22;;;;;;;19.10;17.02;;;;;;;24.56;53.39;100924.53;10497011;28;20107;-78
2021/07/24 14:15:23;;;;;;;26.00;18.35;;;;;;;24.16;54.41;100927.63;10497962;28;20056;-78
2021/07/24 14:20:23;;;;;;;25.17;17.85;;;;;;;23.92;55.28;100917.25;10480938;28;20487;-78
2021/07/24 14:25:24;;;;;;;24.52;19.13;;;;;;;23.82;55.66;100915.38;10483028;28;20143;-79
2021/07/24 14:30:25;;;;;;;23.58;19.92;;;;;;;23.41;57.57;100920.25;10488079;28;20119;-79
2021/07/24 14:35:25;;;;;;;27.05;19.27;;;;;;;22.11;58.62;100745.25;10501841;28;20115;-75
2021/07/24 14:40:26;;;;;;;25.45;20.95;;;;;;;22.49;59.97;100871.63;10480081;28;20165;-75
2021/07/24 14:45:27;;;;;;;35.70;22.35;;;;;;;22.55;61.34;100905.53;10500924;28;20064;-74
2021/07/24 14:50:27;;;;;;;26.60;21.13;;;;;;;22.58;60.99;100896.69;10496880;28;20036;-73
2021/07/24 14:55:27;;;;;;;37.58;22.23;;;;;;;22.48;61.26;100903.06;10494630;28;20165;-72
2021/07/24 15:00:28;;;;;;;34.53;22.98;;;;;;;22.44;62.20;100877.13;10476290;28;20064;-73
2021/07/24 15:05:28;;;;;;;24.27;19.85;;;;;;;22.55;61.13;100894.50;10476401;28;20117;-72
2021/07/24 15:10:29;;;;;;;29.92;23.60;;;;;;;22.46;60.80;100885.13;10494217;28;20416;-72
2021/07/24 15:15:30;;;;;;;35.80;21.85;;;;;;;22.44;60.38;100877.13;10459712;28;20039;-72
2021/07/24 15:20:30;;;;;;;37.03;25.30;;;;;;;22.09;59.96;100833.81;10494517;28;20052;-72
2021/07/24 15:25:31;;;;;;;31.30;23.27;;;;;;;22.35;61.23;100877.97;10493945;28;20101;-71
2021/07/24 15:30:31;;;;;;;31.63;24.83;;;;;;;20.87;62.18;100678.25;10494331;28;20162;-72
2021/07/24 15:35:31;;;;;;;35.72;24.80;;;;;;;21.95;63.79;100912.66;10494320;28;20166;-73
2021/07/24 15:40:32;;;;;;;36.25;24.75;;;;;;;21.10;63.80;100814.59;10492279;28;20039;-73
2021/07/24 15:45:32;;;;;;;38.40;27.00;;;;;;;21.85;64.12;100946.53;10492618;28;20371;-73
2021/07/24 15:50:34;;;;;;;42.47;24.80;;;;;;;21.18;65.14;100864.72;10494253;28;20075;-73
2021/07/24 15:55:34;;;;;;;38.10;25.95;;;;;;;21.70;65.14;100949.28;10492873;28;20048;-72
2021/07/24 16:00:35;;;;;;;37.45;26.13;;;;;;;21.79;64.49;100898.00;10492810;28;20410;-72
2021/07/24 16:05:39;;;;;;;35.63;26.40;;;;;;;21.93;64.07;100920.38;10491710;28;20077;-72
2021/07/24 16:10:40;;;;;;;34.83;26.13;;;;;;;21.25;64.86;100811.06;10474401;28;20489;-72
2021/07/24 16:15:40;;;;;;;49.33;29.75;;;;;;;21.82;64.69;100886.44;10492171;28;20036;-72
2021/07/24 16:20:41;;;;;;;28.67;24.42;;;;;;;21.82;64.61;100880.91;10490474;28;20049;-72
2021/07/24 16:25:41;;;;;;;38.53;29.02;;;;;;;21.65;65.48;100883.09;10475725;28;20047;-72
2021/07/24 16:30:42;;;;;;;47.95;30.80;;;;;;;21.87;65.63;100900.25;10480924;28;20029;-72
2021/07/24 16:35:42;;;;;;;44.80;29.05;;;;;;;21.97;64.74;100886.47;10480592;28;20068;-72
2021/07/24 16:40:42;;;;;;;40.95;28.70;;;;;;;22.04;64.60;100864.94;10479931;28;20040;-72
2021/07/24 16:45:43;;;;;;;31.20;25.98;;;;;;;22.12;64.16;100847.03;10481692;28;20041;-72
2021/07/24 16:50:43;;;;;;;42.50;27.67;;;;;;;22.18;63.80;100840.47;10498633;28;20052;-72
2021/07/24 16:55:44;;;;;;;38.22;29.58;;;;;;;22.12;65.00;100821.41;10478025;28;20143;-72
2021/07/24 17:00:44;;;;;;;40.15;27.92;;;;;;;22.19;65.70;100820.03;10496041;28;20040;-72
2021/07/24 17:05:45;;;;;;;52.92;28.90;;;;;;;22.19;65.05;100813.69;10497873;28;20047;-72
2021/07/24 17:10:45;;;;;;;39.53;30.00;;;;;;;22.01;65.43;100773.69;10497216;28;20041;-72
2021/07/24 17:15:46;;;;;;;40.92;28.67;;;;;;;22.04;65.23;100784.16;10498568;28;20036;-72
2021/07/24 17:20:46;;;;;;;35.15;26.35;;;;;;;21.93;66.05;100783.34;10497433;28;20087;-73
2021/07/24 17:25:47;;;;;;;44.05;29.90;;;;;;;21.91;65.40;100763.50;10493901;28;20526;-72
2021/07/24 17:30:48;;;;;;;44.05;31.48;;;;;;;21.57;67.40;100755.78;10493633;28;20150;-72
2021/07/24 17:35:49;;;;;;;48.38;31.75;;;;;;;20.78;71.87;100824.91;10494547;28;20166;-71
2021/07/24 17:40:49;;;;;;;43.20;30.88;;;;;;;21.08;69.92;100871.03;10494684;28;20037;-72
2021/07/24 17:45:50;;;;;;;46.42;32.53;;;;;;;21.46;69.22;100842.28;10493296;28;20037;-72
2021/07/24 17:50:52;;;;;;;53.47;29.67;;;;;;;21.69;67.45;100840.09;10494294;28;20040;-72
2021/07/24 17:55:55;;;;;;;49.13;33.05;;;;;;;21.69;67.42;100838.19;10495428;28;20032;-72
2021/07/24 18:00:57;;;;;;;51.42;34.58;;;;;;;21.69;67.17;100818.06;10493269;28;20063;-72
2021/07/24 18:05:58;;;;;;;36.95;31.35;;;;;;;22.05;66.17;100838.22;10493111;28;20033;-72
2021/07/24 18:10:58;;;;;;;39.17;30.75;;;;;;;22.14;66.00;100838.47;10492782;28;20461;-73
2021/07/24 18:16:00;;;;;;;41.42;32.03;;;;;;;22.16;65.62;100837.13;10492807;28;20082;-73
2021/07/24 18:21:04;;;;;;;41.53;32.47;;;;;;;22.03;64.91;100799.06;10495472;28;20387;-73
2021/07/24 18:26:05;;;;;;;42.60;31.52;;;;;;;22.18;64.85;100818.41;10493105;28;20060;-73
2021/07/24 18:31:06;;;;;;;49.90;35.83;;;;;;;22.17;65.61;100841.53;10491493;28;20036;-73
2021/07/24 18:36:06;;;;;;;49.42;33.92;;;;;;;22.22;65.36;100851.75;10491089;28;20048;-73
2021/07/24 18:41:10;;;;;;;48.78;31.67;;;;;;;22.26;64.81;100870.22;10490364;28;20047;-74
2021/07/24 18:46:11;;;;;;;38.38;29.67;;;;;;;22.15;65.27;100878.78;10491225;28;20039;-74
2021/07/24 18:51:11;;;;;;;39.08;30.95;;;;;;;22.24;64.98;100882.66;10490388;28;20333;-74
2021/07/24 18:56:12;;;;;;;53.33;31.63;;;;;;;22.38;64.67;100875.47;10472561;28;20037;-74
2021/07/24 19:01:15;;;;;;;46.00;34.95;;;;;;;22.03;64.94;100855.03;10491862;28;20052;-75
2021/07/24 19:06:26;;;;;;;48.00;33.75;;;;;;;22.26;64.65;100881.25;10474118;28;20040;-75
2021/07/24 19:11:28;;;;;;;46.80;33.03;;;;;;;22.33;64.98;100874.66;10494427;28;20033;-75
2021/07/24 19:16:28;;;;;;;40.13;32.15;;;;;;;22.37;65.28;100864.72;10493414;28;20127;-75
2021/07/24 19:21:29;;;;;;;42.03;31.25;;;;;;;22.37;64.63;100853.69;10448469;28;20111;-75
2021/07/24 19:26:29;;;;;;;43.03;30.75;;;;;;;22.33;64.89;100852.56;10451235;28;20052;-74
2021/07/24 19:31:30;;;;;;;47.20;32.65;;;;;;;22.34;64.81;100849.56;10450528;28;20056;-75
2021/07/24 19:36:31;;;;;;;40.97;31.02;;;;;;;21.87;64.49;100775.34;10450828;28;20468;-74
2021/07/24 19:41:31;;;;;;;40.60;28.60;;;;;;;22.23;64.61;100847.91;10450531;28;20056;-75
2021/07/24 19:46:32;;;;;;;40.03;31.02;;;;;;;22.17;64.61;100851.75;10449516;28;20036;-75
2021/07/24 19:51:32;;;;;;;45.25;31.83;;;;;;;22.09;64.73;100846.78;10449277;28;20044;-74
2021/07/24 19:56:34;;;;;;;41.22;32.65;;;;;;;22.03;64.93;100856.97;10449010;28;20112;-75
2021/07/24 20:01:35;;;;;;;48.28;32.38;;;;;;;21.81;64.31;100827.72;10449164;28;20452;-74
2021/07/24 20:06:35;;;;;;;41.80;33.42;;;;;;;21.81;64.71;100837.94;10448524;28;20036;-75
2021/07/24 20:11:36;;;;;;;45.63;34.00;;;;;;;21.92;64.75;100860.81;10448823;28;20049;-74
2021/07/24 20:16:37;;;;;;;50.63;33.15;;;;;;;21.90;64.83;100868.53;10448037;28;20068;-75
2021/07/24 20:21:37;;;;;;;44.95;33.90;;;;;;;21.75;64.80;100872.09;10470699;28;20076;-75
2021/07/24 20:26:38;;;;;;;50.08;36.47;;;;;;;21.53;66.02;100878.66;10489045;28;20108;-74
2021/07/24 20:31:39;;;;;;;49.13;35.88;;;;;;;21.27;65.93;100871.38;10453529;28;20032;-74
2021/07/24 20:36:40;;;;;;;55.95;36.65;;;;;;;21.49;65.96;100873.97;10488547;28;20081;-74
2021/07/24 20:41:41;;;;;;;44.38;33.92;;;;;;;21.49;65.15;100879.47;10488680;28;20064;-74
2021/07/24 20:46:41;;;;;;;53.28;37.72;;;;;;;21.40;65.01;100883.84;10490587;28;20067;-75
2021/07/24 20:51:42;;;;;;;48.78;37.03;;;;;;;21.27;65.65;100882.41;10489984;28;20032;-74
2021/07/24 20:56:43;;;;;;;60.00;38.67;;;;;;;21.06;66.34;100879.56;10472206;28;20041;-76
2021/07/24 21:01:44;;;;;;;50.05;38.85;;;;;;;21.02;65.78;100872.91;10489550;28;20029;-75
2021/07/24 21:06:45;;;;;;;51.75;36.90;;;;;;;21.17;65.31;100898.88;10471157;28;20032;-75
2021/07/24 21:11:45;;;;;;;49.08;34.15;;;;;;;21.05;65.36;100894.41;10457097;28;20468;-75
2021/07/24 21:16:46;;;;;;;58.22;39.00;;;;;;;20.97;65.62;100899.63;10478676;28;20032;-75
2021/07/24 21:21:46;;;;;;;47.65;40.65;;;;;;;20.97;65.48;100900.44;10496954;28;20063;-75
2021/07/24 21:26:47;;;;;;;50.40;36.75;;;;;;;20.93;65.35;100907.56;10498927;28;20059;-75
2021/07/24 21:31:48;;;;;;;63.25;38.97;;;;;;;20.96;65.25;100912.53;10499495;28;20066;-76
2021/07/24 21:36:48;;;;;;;63.75;38.97;;;;;;;20.96;65.09;100918.03;10498396;28;20443;-75
2021/07/24 21:41:49;;;;;;;52.58;39.78;;;;;;;20.92;65.21;100925.16;10495181;28;20120;-75
2021/07/24 21:46:49;;;;;;;64.00;47.05;;;;;;;20.53;65.44;100875.94;10477337;28;20342;-75
2021/07/24 21:51:50;;;;;;;59.33;43.60;;;;;;;20.85;66.53;100924.59;10475630;28;20081;-75
2021/07/24 21:56:52;;;;;;;65.07;45.65;;;;;;;20.83;66.17;100916.56;10474730;28;20374;-75
2021/07/24 22:01:53;;;;;;;80.28;45.10;;;;;;;20.92;65.94;100922.41;10492955;28;20036;-75
2021/07/24 22:06:54;;;;;;;61.80;46.25;;;;;;;20.84;66.02;100912.75;10474900;28;20012;-75
2021/07/24 22:11:54;;;;;;;74.70;51.40;;;;;;;20.14;66.67;100799.19;10475084;28;20091;-75
2021/07/24 22:16:55;;;;;;;72.28;53.95;;;;;;;20.74;66.83;100906.31;10477085;28;20356;-74
2021/07/24 22:21:57;;;;;;;78.80;53.45;;;;;;;20.61;67.51;100922.22;10488795;28;20360;-75
2021/07/24 22:26:58;;;;;;;80.05;53.00;;;;;;;20.64;68.55;100905.19;10472395;28;20116;-75
2021/07/24 22:31:58;;;;;;;71.05;49.63;;;;;;;20.76;68.47;100907.72;10472540;28;20101;-75
2021/07/24 22:36:59;;;;;;;69.05;50.90;;;;;;;20.80;68.02;100906.09;10492210;28;20101;-75
2021/07/24 22:41:59;;;;;;;61.10;48.35;;;;;;;20.90;67.62;100919.94;10474005;28;20029;-75
2021/07/24 22:47:00;;;;;;;75.10;49.05;;;;;;;20.80;67.18;100864.00;10492208;28;20085;-75